sensor_id;sensor_type;location;lat;lon;timestamp;P1;durP1;ratioP1;P2;durP2;ratioP2
77298;SDS011;66361;52.034;20.656;2023-08-07T05:01:00;3.40;;;3.10;;
77298;SDS011;66361;52.034;20.656;2023-08-07T05:05:03;3.70;;;2.97;;
77298;SDS011;66361;52.034;20.656;2023-08-07T05:09:06;3.78;;;2.90;;
77298;SDS011;66361;52.034;20.656;2023-08-07T05:13:12;3.22;;;2.90;;
77298;SDS011;66361;52.034;20.656;2023-08-07T05:17:16;2.97;;;2.67;;
77298;SDS011;66361;52.034;20.656;2023-08-07T05:21:19;3.60;;;3.17;;
77298;SDS011;66361;52.034;20.656;2023-08-07T05:25:22;2.83;;;2.45;;
77298;SDS011;66361;52.034;20.656;2023-08-07T05:29:25;2.60;;;2.15;;
77298;SDS011;66361;52.034;20.656;2023-08-07T05:33:29;2.30;;;2.00;;
77298;SDS011;66361;52.034;20.656;2023-08-07T05:37:33;2.38;;;2.05;;
77298;SDS011;66361;52.034;20.656;2023-08-07T05:41:35;3.08;;;2.13;;
77298;SDS011;66361;52.034;20.656;2023-08-07T05:45:39;2.28;;;2.08;;
77298;SDS011;66361;52.034;20.656;2023-08-07T05:49:45;2.38;;;1.98;;
77298;SDS011;66361;52.034;20.656;2023-08-07T05:53:48;2.80;;;2.50;;
77298;SDS011;66361;52.034;20.656;2023-08-07T05:57:53;2.63;;;2.03;;
77298;SDS011;66361;52.034;20.656;2023-08-07T06:01:56;10.63;;;2.65;;
77298;SDS011;66361;52.034;20.656;2023-08-07T06:06:02;2.63;;;2.08;;
77298;SDS011;66361;52.034;20.656;2023-08-07T06:10:05;2.30;;;2.10;;
77298;SDS011;66361;52.034;20.656;2023-08-07T06:14:09;3.38;;;1.85;;
77298;SDS011;66361;52.034;20.656;2023-08-07T06:18:12;2.42;;;1.83;;
77298;SDS011;66361;52.034;20.656;2023-08-07T06:22:17;2.17;;;1.70;;
77298;SDS011;66361;52.034;20.656;2023-08-07T06:26:20;1.75;;;1.50;;
77298;SDS011;66361;52.034;20.656;2023-08-07T06:30:23;1.55;;;1.38;;
77298;SDS011;66361;52.034;20.656;2023-08-07T06:34:26;1.88;;;1.50;;
77298;SDS011;66361;52.034;20.656;2023-08-07T06:38:30;1.67;;;1.45;;
77298;SDS011;66361;52.034;20.656;2023-08-07T06:42:33;6.10;;;1.60;;
77298;SDS011;66361;52.034;20.656;2023-08-07T06:46:36;2.30;;;2.10;;
77298;SDS011;66361;52.034;20.656;2023-08-07T06:50:39;3.55;;;1.85;;
77298;SDS011;66361;52.034;20.656;2023-08-07T06:54:44;3.00;;;1.70;;
77298;SDS011;66361;52.034;20.656;2023-08-07T06:58:47;2.50;;;1.90;;
77298;SDS011;66361;52.034;20.656;2023-08-07T07:02:51;2.55;;;2.30;;
77298;SDS011;66361;52.034;20.656;2023-08-07T07:06:54;2.15;;;1.75;;
77298;SDS011;66361;52.034;20.656;2023-08-07T07:10:59;2.03;;;1.73;;
77298;SDS011;66361;52.034;20.656;2023-08-07T07:15:02;2.47;;;1.75;;
77298;SDS011;66361;52.034;20.656;2023-08-07T07:19:07;2.08;;;1.88;;
77298;SDS011;66361;52.034;20.656;2023-08-07T07:23:11;3.00;;;2.13;;
77298;SDS011;66361;52.034;20.656;2023-08-07T07:27:15;2.75;;;1.73;;
77298;SDS011;66361;52.034;20.656;2023-08-07T07:31:23;2.40;;;1.80;;
77298;SDS011;66361;52.034;20.656;2023-08-07T07:39:32;2.70;;;1.70;;
77298;SDS011;66361;52.034;20.656;2023-08-07T07:43:38;2.17;;;1.65;;
77298;SDS011;66361;52.034;20.656;2023-08-07T07:47:41;2.20;;;1.90;;
77298;SDS011;66361;52.034;20.656;2023-08-07T07:51:45;2.22;;;1.60;;
77298;SDS011;66361;52.034;20.656;2023-08-07T07:55:50;2.05;;;1.60;;
77298;SDS011;66361;52.034;20.656;2023-08-07T07:59:56;1.90;;;1.60;;
77298;SDS011;66361;52.034;20.656;2023-08-07T08:03:59;3.90;;;1.95;;
77298;SDS011;66361;52.034;20.656;2023-08-07T08:08:04;2.30;;;1.42;;
77298;SDS011;66361;52.034;20.656;2023-08-07T08:12:08;3.47;;;1.50;;
77298;SDS011;66361;52.034;20.656;2023-08-07T08:16:14;1.92;;;1.40;;
77298;SDS011;66361;52.034;20.656;2023-08-07T08:20:20;2.25;;;1.40;;
77298;SDS011;66361;52.034;20.656;2023-08-07T08:24:23;1.98;;;1.50;;
77298;SDS011;66361;52.034;20.656;2023-08-07T08:28:30;2.17;;;1.50;;
77298;SDS011;66361;52.034;20.656;2023-08-07T08:32:40;1.77;;;1.55;;
77298;SDS011;66361;52.034;20.656;2023-08-07T08:36:43;1.75;;;1.30;;
77298;SDS011;66361;52.034;20.656;2023-08-07T08:40:48;2.20;;;1.80;;
77298;SDS011;66361;52.034;20.656;2023-08-07T08:44:55;4.18;;;1.63;;
77298;SDS011;66361;52.034;20.656;2023-08-07T08:49:00;1.80;;;1.40;;
77298;SDS011;66361;52.034;20.656;2023-08-07T08:53:06;3.50;;;1.33;;
77298;SDS011;66361;52.034;20.656;2023-08-07T08:57:12;1.77;;;1.45;;
77298;SDS011;66361;52.034;20.656;2023-08-07T09:01:16;2.42;;;1.40;;
77298;SDS011;66361;52.034;20.656;2023-08-07T09:05:28;2.58;;;1.70;;
77298;SDS011;66361;52.034;20.656;2023-08-07T09:09:32;2.22;;;1.30;;
77298;SDS011;66361;52.034;20.656;2023-08-07T09:13:39;2.28;;;1.25;;
77298;SDS011;66361;52.034;20.656;2023-08-07T09:17:44;1.95;;;1.63;;
77298;SDS011;66361;52.034;20.656;2023-08-07T09:21:50;2.25;;;1.40;;
77298;SDS011;66361;52.034;20.656;2023-08-07T09:26:03;2.45;;;1.52;;
77298;SDS011;66361;52.034;20.656;2023-08-07T09:30:08;2.78;;;1.88;;
77298;SDS011;66361;52.034;20.656;2023-08-07T09:34:19;1.95;;;1.27;;
77298;SDS011;66361;52.034;20.656;2023-08-07T09:38:29;2.25;;;1.30;;
77298;SDS011;66361;52.034;20.656;2023-08-07T09:42:36;1.75;;;1.20;;
77298;SDS011;66361;52.034;20.656;2023-08-07T09:46:47;2.33;;;1.40;;
77298;SDS011;66361;52.034;20.656;2023-08-07T09:50:51;2.95;;;1.40;;
77298;SDS011;66361;52.034;20.656;2023-08-07T09:54:58;4.55;;;1.40;;
77298;SDS011;66361;52.034;20.656;2023-08-07T09:59:01;1.77;;;1.33;;
77298;SDS011;66361;52.034;20.656;2023-08-07T10:03:04;2.33;;;1.42;;
77298;SDS011;66361;52.034;20.656;2023-08-07T10:07:07;1.60;;;1.30;;
77298;SDS011;66361;52.034;20.656;2023-08-07T10:11:14;2.15;;;1.55;;
77298;SDS011;66361;52.034;20.656;2023-08-07T10:15:20;4.20;;;1.58;;
77298;SDS011;66361;52.034;20.656;2023-08-07T10:19:24;3.38;;;1.60;;
77298;SDS011;66361;52.034;20.656;2023-08-07T10:23:27;1.80;;;1.38;;
77298;SDS011;66361;52.034;20.656;2023-08-07T10:27:35;2.78;;;1.70;;
77298;SDS011;66361;52.034;20.656;2023-08-07T10:31:43;1.80;;;1.40;;
77298;SDS011;66361;52.034;20.656;2023-08-07T10:35:48;1.63;;;1.42;;
77298;SDS011;66361;52.034;20.656;2023-08-07T10:40:01;1.85;;;1.45;;
77298;SDS011;66361;52.034;20.656;2023-08-07T10:44:09;3.72;;;2.30;;
77298;SDS011;66361;52.034;20.656;2023-08-07T10:48:21;2.50;;;1.73;;
77298;SDS011;66361;52.034;20.656;2023-08-07T10:52:26;2.50;;;1.50;;
77298;SDS011;66361;52.034;20.656;2023-08-07T10:56:31;3.53;;;1.40;;
77298;SDS011;66361;52.034;20.656;2023-08-07T11:00:36;1.58;;;1.38;;
77298;SDS011;66361;52.034;20.656;2023-08-07T11:04:40;3.17;;;1.65;;
77298;SDS011;66361;52.034;20.656;2023-08-07T11:08:43;2.90;;;1.80;;
77298;SDS011;66361;52.034;20.656;2023-08-07T11:12:46;2.40;;;1.60;;
77298;SDS011;66361;52.034;20.656;2023-08-07T11:16:56;3.17;;;1.70;;
77298;SDS011;66361;52.034;20.656;2023-08-07T11:20:59;2.38;;;1.70;;
77298;SDS011;66361;52.034;20.656;2023-08-07T11:25:02;4.80;;;1.60;;
77298;SDS011;66361;52.034;20.656;2023-08-07T11:29:06;4.15;;;1.92;;
77298;SDS011;66361;52.034;20.656;2023-08-07T11:33:12;4.45;;;2.05;;
77298;SDS011;66361;52.034;20.656;2023-08-07T11:37:15;3.30;;;1.70;;
77298;SDS011;66361;52.034;20.656;2023-08-07T11:41:20;4.13;;;1.65;;
77298;SDS011;66361;52.034;20.656;2023-08-07T11:45:23;2.47;;;1.80;;
77298;SDS011;66361;52.034;20.656;2023-08-07T11:49:28;3.10;;;1.70;;
77298;SDS011;66361;52.034;20.656;2023-08-07T11:53:32;4.03;;;1.73;;
77298;SDS011;66361;52.034;20.656;2023-08-07T11:57:38;4.15;;;1.90;;
77298;SDS011;66361;52.034;20.656;2023-08-07T12:01:43;1.95;;;1.50;;
77298;SDS011;66361;52.034;20.656;2023-08-07T12:05:50;2.72;;;1.80;;
77298;SDS011;66361;52.034;20.656;2023-08-07T12:09:53;1.85;;;1.45;;
77298;SDS011;66361;52.034;20.656;2023-08-07T12:13:59;3.55;;;1.70;;
77298;SDS011;66361;52.034;20.656;2023-08-07T12:18:02;2.53;;;1.48;;
77298;SDS011;66361;52.034;20.656;2023-08-07T12:22:07;3.35;;;2.08;;
77298;SDS011;66361;52.034;20.656;2023-08-07T12:26:12;2.53;;;1.60;;
77298;SDS011;66361;52.034;20.656;2023-08-07T12:30:15;1.98;;;1.45;;
77298;SDS011;66361;52.034;20.656;2023-08-07T12:34:18;4.03;;;1.98;;
77298;SDS011;66361;52.034;20.656;2023-08-07T12:38:28;2.05;;;1.50;;
77298;SDS011;66361;52.034;20.656;2023-08-07T12:42:31;2.65;;;1.63;;
77298;SDS011;66361;52.034;20.656;2023-08-07T12:46:35;2.40;;;1.65;;
77298;SDS011;66361;52.034;20.656;2023-08-07T12:50:40;3.35;;;2.10;;
77298;SDS011;66361;52.034;20.656;2023-08-07T12:54:48;2.63;;;1.60;;
77298;SDS011;66361;52.034;20.656;2023-08-07T12:58:51;2.80;;;1.92;;
77298;SDS011;66361;52.034;20.656;2023-08-07T13:02:54;2.95;;;2.20;;
77298;SDS011;66361;52.034;20.656;2023-08-07T13:06:57;2.30;;;1.70;;
77298;SDS011;66361;52.034;20.656;2023-08-07T13:11:06;3.13;;;1.90;;
77298;SDS011;66361;52.034;20.656;2023-08-07T13:15:10;3.95;;;1.65;;
77298;SDS011;66361;52.034;20.656;2023-08-07T13:19:19;1.92;;;1.35;;
77298;SDS011;66361;52.034;20.656;2023-08-07T13:23:22;2.63;;;1.95;;
77298;SDS011;66361;52.034;20.656;2023-08-07T13:27:27;2.95;;;1.88;;
77298;SDS011;66361;52.034;20.656;2023-08-07T13:31:30;2.90;;;1.95;;
77298;SDS011;66361;52.034;20.656;2023-08-07T13:35:34;2.67;;;2.00;;
77298;SDS011;66361;52.034;20.656;2023-08-07T13:39:37;4.18;;;2.10;;
77298;SDS011;66361;52.034;20.656;2023-08-07T13:43:44;2.42;;;1.70;;
77298;SDS011;66361;52.034;20.656;2023-08-07T13:47:47;3.55;;;1.90;;
77298;SDS011;66361;52.034;20.656;2023-08-07T13:51:50;3.55;;;2.10;;
77298;SDS011;66361;52.034;20.656;2023-08-07T13:55:58;3.65;;;1.98;;
77298;SDS011;66361;52.034;20.656;2023-08-07T14:00:07;3.85;;;1.90;;
77298;SDS011;66361;52.034;20.656;2023-08-07T14:04:12;3.47;;;2.08;;
77298;SDS011;66361;52.034;20.656;2023-08-07T14:08:17;5.57;;;2.10;;
77298;SDS011;66361;52.034;20.656;2023-08-07T14:12:20;2.90;;;2.20;;
77298;SDS011;66361;52.034;20.656;2023-08-07T14:16:25;4.20;;;2.30;;
77298;SDS011;66361;52.034;20.656;2023-08-07T14:20:37;3.20;;;2.50;;
77298;SDS011;66361;52.034;20.656;2023-08-07T14:25:00;4.95;;;2.10;;
77298;SDS011;66361;52.034;20.656;2023-08-07T14:29:04;4.03;;;2.13;;
77298;SDS011;66361;52.034;20.656;2023-08-07T14:33:11;2.88;;;2.38;;
77298;SDS011;66361;52.034;20.656;2023-08-07T14:37:15;2.85;;;2.40;;
77298;SDS011;66361;52.034;20.656;2023-08-07T14:41:17;3.67;;;2.28;;
77298;SDS011;66361;52.034;20.656;2023-08-07T14:45:21;3.45;;;2.17;;
77298;SDS011;66361;52.034;20.656;2023-08-07T14:49:26;3.08;;;2.25;;
77298;SDS011;66361;52.034;20.656;2023-08-07T14:53:30;3.08;;;2.20;;
77298;SDS011;66361;52.034;20.656;2023-08-07T14:57:36;2.92;;;2.38;;
77298;SDS011;66361;52.034;20.656;2023-08-07T15:01:39;2.90;;;2.20;;
77298;SDS011;66361;52.034;20.656;2023-08-07T15:05:44;2.30;;;2.08;;
77298;SDS011;66361;52.034;20.656;2023-08-07T15:09:47;3.55;;;2.42;;
77298;SDS011;66361;52.034;20.656;2023-08-07T15:13:51;3.85;;;2.00;;
77298;SDS011;66361;52.034;20.656;2023-08-07T15:17:55;2.22;;;1.50;;
77298;SDS011;66361;52.034;20.656;2023-08-07T15:21:59;3.90;;;1.95;;
77298;SDS011;66361;52.034;20.656;2023-08-07T15:26:07;2.95;;;1.92;;
77298;SDS011;66361;52.034;20.656;2023-08-07T15:30:11;4.57;;;2.33;;
77298;SDS011;66361;52.034;20.656;2023-08-07T15:34:14;2.15;;;1.90;;
77298;SDS011;66361;52.034;20.656;2023-08-07T15:38:18;2.55;;;2.00;;
77298;SDS011;66361;52.034;20.656;2023-08-07T15:42:23;2.35;;;1.90;;
77298;SDS011;66361;52.034;20.656;2023-08-07T15:46:26;2.75;;;2.10;;
77298;SDS011;66361;52.034;20.656;2023-08-07T15:50:29;3.00;;;2.10;;
77298;SDS011;66361;52.034;20.656;2023-08-07T15:54:40;2.88;;;2.20;;
77298;SDS011;66361;52.034;20.656;2023-08-07T15:58:44;4.18;;;1.85;;
77298;SDS011;66361;52.034;20.656;2023-08-07T16:02:47;4.40;;;2.00;;
77298;SDS011;66361;52.034;20.656;2023-08-07T16:06:53;2.63;;;2.20;;
77298;SDS011;66361;52.034;20.656;2023-08-07T16:10:58;2.83;;;2.00;;
77298;SDS011;66361;52.034;20.656;2023-08-07T16:15:03;2.92;;;2.00;;
77298;SDS011;66361;52.034;20.656;2023-08-07T16:19:06;4.72;;;2.78;;
77298;SDS011;66361;52.034;20.656;2023-08-07T16:23:12;2.72;;;1.98;;
77298;SDS011;66361;52.034;20.656;2023-08-07T16:27:17;3.17;;;2.25;;
77298;SDS011;66361;52.034;20.656;2023-08-07T16:31:20;3.25;;;2.20;;
77298;SDS011;66361;52.034;20.656;2023-08-07T16:35:23;2.38;;;2.03;;
77298;SDS011;66361;52.034;20.656;2023-08-07T16:39:26;4.40;;;2.25;;
77298;SDS011;66361;52.034;20.656;2023-08-07T16:43:31;2.88;;;2.08;;
77298;SDS011;66361;52.034;20.656;2023-08-07T16:47:35;2.83;;;2.25;;
77298;SDS011;66361;52.034;20.656;2023-08-07T16:51:38;3.83;;;2.17;;
77298;SDS011;66361;52.034;20.656;2023-08-07T16:55:41;4.35;;;2.47;;
77298;SDS011;66361;52.034;20.656;2023-08-07T16:59:47;5.07;;;2.60;;
77298;SDS011;66361;52.034;20.656;2023-08-07T17:03:50;2.75;;;2.17;;
77298;SDS011;66361;52.034;20.656;2023-08-07T17:07:53;3.28;;;2.33;;
77298;SDS011;66361;52.034;20.656;2023-08-07T17:11:57;4.35;;;2.60;;
77298;SDS011;66361;52.034;20.656;2023-08-07T17:16:02;2.75;;;2.20;;
77298;SDS011;66361;52.034;20.656;2023-08-07T17:20:06;4.63;;;2.40;;
77298;SDS011;66361;52.034;20.656;2023-08-07T17:24:10;2.90;;;2.35;;
77298;SDS011;66361;52.034;20.656;2023-08-07T17:28:13;3.63;;;2.45;;
77298;SDS011;66361;52.034;20.656;2023-08-07T17:32:17;3.28;;;2.30;;
77298;SDS011;66361;52.034;20.656;2023-08-07T17:36:25;3.75;;;2.88;;
77298;SDS011;66361;52.034;20.656;2023-08-07T17:40:29;4.00;;;3.28;;
77298;SDS011;66361;52.034;20.656;2023-08-07T17:44:32;3.47;;;2.42;;
77298;SDS011;66361;52.034;20.656;2023-08-07T17:48:37;3.85;;;2.40;;
77298;SDS011;66361;52.034;20.656;2023-08-07T17:52:45;3.92;;;2.65;;
77298;SDS011;66361;52.034;20.656;2023-08-07T17:56:48;5.25;;;2.80;;
77298;SDS011;66361;52.034;20.656;2023-08-07T18:00:51;3.20;;;2.47;;
77298;SDS011;66361;52.034;20.656;2023-08-07T18:04:56;2.88;;;2.20;;
77298;SDS011;66361;52.034;20.656;2023-08-07T18:09:00;3.03;;;2.10;;
77298;SDS011;66361;52.034;20.656;2023-08-07T18:13:03;3.30;;;3.00;;
77298;SDS011;66361;52.034;20.656;2023-08-07T18:17:06;3.05;;;2.58;;
77298;SDS011;66361;52.034;20.656;2023-08-07T18:21:14;3.55;;;2.78;;
77298;SDS011;66361;52.034;20.656;2023-08-07T18:25:18;3.17;;;2.55;;
77298;SDS011;66361;52.034;20.656;2023-08-07T18:29:22;4.82;;;2.58;;
77298;SDS011;66361;52.034;20.656;2023-08-07T18:33:25;4.70;;;2.20;;
77298;SDS011;66361;52.034;20.656;2023-08-07T18:37:30;4.00;;;2.20;;
77298;SDS011;66361;52.034;20.656;2023-08-07T18:41:33;3.35;;;2.40;;
77298;SDS011;66361;52.034;20.656;2023-08-07T18:45:36;4.15;;;2.30;;
77298;SDS011;66361;52.034;20.656;2023-08-07T18:49:39;3.20;;;2.25;;
77298;SDS011;66361;52.034;20.656;2023-08-07T18:53:44;2.92;;;2.38;;
77298;SDS011;66361;52.034;20.656;2023-08-07T18:57:47;2.53;;;1.88;;
77298;SDS011;66361;52.034;20.656;2023-08-07T19:01:50;3.22;;;2.28;;
77298;SDS011;66361;52.034;20.656;2023-08-07T19:05:53;2.40;;;2.20;;
77298;SDS011;66361;52.034;20.656;2023-08-07T19:09:58;3.08;;;2.33;;
77298;SDS011;66361;52.034;20.656;2023-08-07T19:14:01;2.80;;;2.13;;
77298;SDS011;66361;52.034;20.656;2023-08-07T19:18:05;2.97;;;2.50;;
77298;SDS011;66361;52.034;20.656;2023-08-07T19:22:08;3.00;;;2.22;;
77298;SDS011;66361;52.034;20.656;2023-08-07T19:26:13;3.90;;;2.35;;
77298;SDS011;66361;52.034;20.656;2023-08-07T19:30:16;3.63;;;2.17;;
77298;SDS011;66361;52.034;20.656;2023-08-07T19:34:19;4.75;;;2.55;;
77298;SDS011;66361;52.034;20.656;2023-08-07T19:38:23;3.60;;;2.30;;
77298;SDS011;66361;52.034;20.656;2023-08-07T19:42:28;3.22;;;2.67;;
77298;SDS011;66361;52.034;20.656;2023-08-07T19:46:32;2.90;;;2.08;;
77298;SDS011;66361;52.034;20.656;2023-08-07T19:50:35;3.30;;;2.67;;
77298;SDS011;66361;52.034;20.656;2023-08-07T19:54:42;5.00;;;2.70;;
77298;SDS011;66361;52.034;20.656;2023-08-07T19:58:48;3.47;;;2.65;;
77298;SDS011;66361;52.034;20.656;2023-08-07T20:02:52;3.45;;;2.40;;
77298;SDS011;66361;52.034;20.656;2023-08-07T20:06:57;4.45;;;3.05;;
77298;SDS011;66361;52.034;20.656;2023-08-07T20:11:04;3.92;;;2.85;;
77298;SDS011;66361;52.034;20.656;2023-08-07T20:15:09;5.90;;;2.70;;
77298;SDS011;66361;52.034;20.656;2023-08-07T20:19:14;3.22;;;2.53;;
77298;SDS011;66361;52.034;20.656;2023-08-07T20:23:18;3.60;;;3.10;;
77298;SDS011;66361;52.034;20.656;2023-08-07T20:27:21;4.97;;;2.70;;
77298;SDS011;66361;52.034;20.656;2023-08-07T20:31:25;4.00;;;2.75;;
77298;SDS011;66361;52.034;20.656;2023-08-07T20:35:28;4.32;;;2.55;;
77298;SDS011;66361;52.034;20.656;2023-08-07T20:39:32;5.28;;;3.97;;
77298;SDS011;66361;52.034;20.656;2023-08-07T20:43:35;4.18;;;2.65;;
77298;SDS011;66361;52.034;20.656;2023-08-07T20:47:39;4.70;;;2.45;;
77298;SDS011;66361;52.034;20.656;2023-08-07T20:51:43;4.13;;;2.80;;
77298;SDS011;66361;52.034;20.656;2023-08-07T20:55:45;3.42;;;2.40;;
77298;SDS011;66361;52.034;20.656;2023-08-07T20:59:49;3.00;;;2.53;;
77298;SDS011;66361;52.034;20.656;2023-08-07T21:03:54;3.63;;;2.40;;
77298;SDS011;66361;52.034;20.656;2023-08-07T21:07:57;3.38;;;2.60;;
77298;SDS011;66361;52.034;20.656;2023-08-07T21:12:01;2.50;;;2.20;;
77298;SDS011;66361;52.034;20.656;2023-08-07T21:16:04;3.47;;;2.67;;
77298;SDS011;66361;52.034;20.656;2023-08-07T21:20:10;3.33;;;2.28;;
77298;SDS011;66361;52.034;20.656;2023-08-07T21:24:14;4.35;;;2.53;;
77298;SDS011;66361;52.034;20.656;2023-08-07T21:28:17;3.22;;;2.25;;
77298;SDS011;66361;52.034;20.656;2023-08-07T21:32:20;3.58;;;2.60;;
77298;SDS011;66361;52.034;20.656;2023-08-07T21:36:25;2.92;;;2.58;;
77298;SDS011;66361;52.034;20.656;2023-08-07T21:40:31;3.25;;;2.30;;
77298;SDS011;66361;52.034;20.656;2023-08-07T21:44:34;3.50;;;2.63;;
77298;SDS011;66361;52.034;20.656;2023-08-07T21:48:37;4.13;;;2.45;;
77298;SDS011;66361;52.034;20.656;2023-08-07T21:52:42;5.05;;;2.33;;
77298;SDS011;66361;52.034;20.656;2023-08-07T21:56:46;3.22;;;2.30;;
77298;SDS011;66361;52.034;20.656;2023-08-07T22:00:50;4.00;;;2.88;;
77298;SDS011;66361;52.034;20.656;2023-08-07T22:04:53;3.63;;;2.40;;
77298;SDS011;66361;52.034;20.656;2023-08-07T22:08:58;3.50;;;2.20;;
77298;SDS011;66361;52.034;20.656;2023-08-07T22:13:01;3.08;;;2.40;;
77298;SDS011;66361;52.034;20.656;2023-08-07T22:17:06;2.97;;;2.60;;
77298;SDS011;66361;52.034;20.656;2023-08-07T22:21:15;6.03;;;2.60;;
77298;SDS011;66361;52.034;20.656;2023-08-07T22:25:20;3.53;;;2.65;;
77298;SDS011;66361;52.034;20.656;2023-08-07T22:29:23;5.60;;;2.72;;
77298;SDS011;66361;52.034;20.656;2023-08-07T22:33:26;4.90;;;2.50;;
77298;SDS011;66361;52.034;20.656;2023-08-07T22:37:30;5.63;;;2.70;;
77298;SDS011;66361;52.034;20.656;2023-08-07T22:41:34;4.43;;;2.65;;
77298;SDS011;66361;52.034;20.656;2023-08-07T22:45:37;3.22;;;2.80;;
77298;SDS011;66361;52.034;20.656;2023-08-07T22:49:45;4.35;;;2.42;;
77298;SDS011;66361;52.034;20.656;2023-08-07T22:53:48;4.07;;;2.72;;
77298;SDS011;66361;52.034;20.656;2023-08-07T22:57:55;4.28;;;2.83;;
